Flight Briefing for CPX241

Departure Arrival
Huntsville International Airport (KHSV)
Click to view FAA NOTAMS
Miami International Airport (KMIA)
Click to view FAA NOTAMS
Departure Time Arrival Time
N/A N/A
Aircraft Distance
B767-300BDSF 629nm
Departure METAR Arrival METAR
KHSV 180614Z AUTO 31008KT 10SM -RA OVC010 07/06 A3003 RMK AO2 CIG 007V012 PRESRR P0002 T00720056 KMIA 180553Z 14006KT 10SM FEW030 SCT050 SCT065 24/24 A3004 RMK AO2 SLP173 T02440239 10250 20239 58002
Suggested Route
RMG ATL YANTI Q89 PRMUS OMN HILEY7


View recent IFR Routes data
Notes



Charts and Procedures

Charts for KHSV
No chart available
Charts for KMIA
No chart available

Ventusky Weather